Time;durP1;ratioP1;P1;durP2;ratioP2;P2;SDS_P1;SDS_P2;PMS_P1;PMS_P2;Temp;Humidity;BMP_temperature;BMP_pressure;BME280_temperature;BME280_humidity;BME280_pressure;Samples;Min_cycle;Max_cycle;Signal;HPM_P1;HPM_P2
2021/11/15 00:01:43;;;;;;;52.88;28.13;;;8.00;99.90;;;;;;5057374;28;20037;-68
2021/11/15 00:04:13;;;;;;;55.17;28.23;;;8.00;99.90;;;;;;5056812;28;20028;-69
2021/11/15 00:06:38;;;;;;;56.95;29.05;;;8.00;99.90;;;;;;5057342;28;20017;-69
2021/11/15 00:09:04;;;;;;;56.38;29.15;;;7.90;99.90;;;;;;5055841;28;20028;-69
2021/11/15 00:11:30;;;;;;;56.38;29.33;;;7.90;99.90;;;;;;5057254;28;20028;-69
2021/11/15 00:13:56;;;;;;;52.58;29.05;;;7.90;99.90;;;;;;5056651;28;20100;-69
2021/11/15 00:16:22;;;;;;;55.08;29.35;;;7.90;99.90;;;;;;5057152;28;20037;-69
2021/11/15 00:18:47;;;;;;;57.63;30.40;;;7.90;99.90;;;;;;5055440;28;20021;-69
2021/11/15 00:21:13;;;;;;;56.13;30.00;;;7.80;99.90;;;;;;5038967;28;20502;-69
2021/11/15 00:23:38;;;;;;;51.03;28.45;;;7.90;99.90;;;;;;5055917;28;20078;-69
2021/11/15 00:26:04;;;;;;;56.95;29.83;;;7.90;99.90;;;;;;5038563;28;20433;-68
2021/11/15 00:28:30;;;;;;;54.20;29.73;;;7.80;99.90;;;;;;5055567;28;20021;-69
2021/11/15 00:30:55;;;;;;;52.72;27.58;;;7.90;99.90;;;;;;5056910;28;20375;-66
2021/11/15 00:33:21;;;;;;;50.33;26.33;;;7.90;99.90;;;;;;5056892;28;20037;-68
2021/11/15 00:35:47;;;;;;;51.45;27.00;;;7.90;99.90;;;;;;5056568;28;20459;-69
2021/11/15 00:38:12;;;;;;;52.03;26.70;;;7.80;99.90;;;;;;5056508;28;20091;-69
2021/11/15 00:40:38;;;;;;;52.45;27.85;;;7.80;99.90;;;;;;5056110;28;20024;-69
2021/11/15 00:43:04;;;;;;;48.63;27.05;;;7.80;99.90;;;;;;5055547;28;20500;-69
2021/11/15 00:45:30;;;;;;;46.22;25.50;;;7.80;99.90;;;;;;5056371;28;20021;-69
2021/11/15 00:47:56;;;;;;;44.67;24.80;;;7.70;99.90;;;;;;5056586;28;20029;-69
2021/11/15 00:50:21;;;;;;;44.97;24.77;;;7.70;99.90;;;;;;5056012;28;20029;-69
2021/11/15 00:52:49;;;;;;;48.03;24.95;;;7.70;99.90;;;;;;5056527;28;20032;-69
2021/11/15 00:55:15;;;;;;;41.55;23.38;;;7.80;99.90;;;;;;5054627;28;20108;-69
2021/11/15 00:57:42;;;;;;;47.92;25.70;;;7.70;99.90;;;;;;5056428;28;20051;-68
2021/11/15 01:00:11;;;;;;;50.63;26.95;;;7.70;99.90;;;;;;5055239;28;20092;-69
2021/11/15 01:02:37;;;;;;;47.08;26.05;;;7.70;99.90;;;;;;5056266;28;20052;-69
2021/11/15 01:05:03;;;;;;;55.83;26.90;;;7.70;99.90;;;;;;5056278;28;20052;-68
2021/11/15 01:07:29;;;;;;;45.92;24.80;;;7.70;99.90;;;;;;5055953;28;20017;-69
2021/11/15 01:09:54;;;;;;;47.50;25.17;;;7.70;99.90;;;;;;5056170;28;20146;-68
2021/11/15 01:12:20;;;;;;;43.88;23.10;;;7.70;99.90;;;;;;5055286;28;20029;-69
2021/11/15 01:14:46;;;;;;;50.28;26.23;;;7.70;99.90;;;;;;5056072;28;20411;-68
2021/11/15 01:17:11;;;;;;;48.83;25.48;;;7.70;99.90;;;;;;5056054;28;20033;-69
2021/11/15 01:19:37;;;;;;;48.25;25.60;;;7.90;99.90;;;;;;5055992;28;20064;-69
2021/11/15 01:22:03;;;;;;;52.65;27.48;;;7.80;99.90;;;;;;5055339;28;20056;-68
2021/11/15 01:24:29;;;;;;;51.25;26.25;;;7.80;99.90;;;;;;5037399;28;20144;-69
2021/11/15 01:26:55;;;;;;;52.65;27.33;;;7.80;99.90;;;;;;5055872;28;20442;-69
2021/11/15 01:29:20;;;;;;;55.85;27.60;;;7.70;99.90;;;;;;5055559;28;20025;-69
2021/11/15 01:31:46;;;;;;;52.70;27.42;;;7.80;99.90;;;;;;5037410;28;20025;-68
2021/11/15 01:34:11;;;;;;;53.13;26.48;;;7.80;99.90;;;;;;5055751;28;20083;-68
2021/11/15 01:36:37;;;;;;;53.97;27.73;;;7.80;99.90;;;;;;5055696;28;20147;-69
2021/11/15 01:39:05;;;;;;;54.00;26.25;;;7.70;99.90;;;;;;5054074;28;20036;-68
2021/11/15 01:41:31;;;;;;;52.15;26.70;;;7.70;99.90;;;;;;5055519;28;20056;-68
2021/11/15 01:43:57;;;;;;;58.70;28.65;;;7.70;99.90;;;;;;5055255;28;20017;-68
2021/11/15 01:46:22;;;;;;;49.72;27.42;;;7.80;99.90;;;;;;5055467;28;20067;-69
2021/11/15 01:48:48;;;;;;;51.85;26.30;;;7.80;99.90;;;;;;5055464;28;20025;-68
2021/11/15 01:51:14;;;;;;;52.75;26.50;;;7.80;99.90;;;;;;5055107;28;20494;-69
2021/11/15 01:53:40;;;;;;;51.03;26.25;;;7.70;99.90;;;;;;5053938;28;20035;-68
2021/11/15 01:56:05;;;;;;;54.08;28.08;;;7.70;99.90;;;;;;5054761;28;20032;-68
2021/11/15 01:58:31;;;;;;;53.72;27.25;;;7.70;99.90;;;;;;5055254;28;20040;-68
2021/11/15 02:00:58;;;;;;;55.25;28.25;;;7.70;99.90;;;;;;5055126;28;20446;-69
2021/11/15 02:03:25;;;;;;;58.85;28.42;;;7.70;99.90;;;;;;5054891;28;20020;-69
2021/11/15 02:05:51;;;;;;;56.22;28.67;;;7.70;99.90;;;;;;5053718;28;20016;-67
2021/11/15 02:08:18;;;;;;;56.33;27.92;;;7.80;99.90;;;;;;5055041;28;20017;-68
2021/11/15 02:10:45;;;;;;;51.70;26.85;;;7.70;99.90;;;;;;5054741;28;20021;-68
2021/11/15 02:13:14;;;;;;;62.53;29.15;;;7.80;99.90;;;;;;5054438;28;20021;-69
2021/11/15 02:15:40;;;;;;;52.42;27.05;;;7.70;99.90;;;;;;5053734;28;20029;-69
2021/11/15 02:18:06;;;;;;;50.88;26.73;;;7.70;99.90;;;;;;5054311;28;20025;-68
2021/11/15 02:20:49;;;;;;;53.53;26.02;;;7.70;99.90;;;;;;5053028;28;20028;-68
2021/11/15 02:23:16;;;;;;;58.92;27.00;;;7.70;99.90;;;;;;5054274;28;20032;-68
2021/11/15 02:25:43;;;;;;;52.42;26.58;;;7.70;99.90;;;;;;5052945;28;20394;-68
2021/11/15 02:28:09;;;;;;;50.05;25.75;;;7.70;99.90;;;;;;5054703;28;20032;-68
2021/11/15 02:30:35;;;;;;;55.63;27.95;;;7.70;99.90;;;;;;5054642;28;20025;-68
2021/11/15 02:33:01;;;;;;;47.85;25.70;;;7.70;99.90;;;;;;5053405;28;20033;-69
2021/11/15 02:35:27;;;;;;;58.80;27.35;;;7.60;99.90;;;;;;5053174;28;20021;-69
2021/11/15 02:37:53;;;;;;;52.17;26.23;;;7.60;99.90;;;;;;5053372;28;20044;-67
2021/11/15 02:40:22;;;;;;;52.03;25.98;;;7.60;99.90;;;;;;5054497;28;20484;-69
2021/11/15 02:42:49;;;;;;;49.50;26.05;;;7.60;99.90;;;;;;5054376;28;20141;-68
2021/11/15 02:45:17;;;;;;;50.88;26.67;;;7.60;99.90;;;;;;5053864;28;20025;-69
2021/11/15 02:47:44;;;;;;;52.47;26.73;;;7.60;99.90;;;;;;5053791;28;20020;-69
2021/11/15 02:50:14;;;;;;;49.63;26.58;;;7.50;99.90;;;;;;5054339;28;20067;-68
2021/11/15 02:52:43;;;;;;;54.47;26.20;;;7.50;99.90;;;;;;5054308;28;20059;-69
2021/11/15 02:55:08;;;;;;;51.47;27.33;;;7.60;99.90;;;;;;5054253;28;20056;-68
2021/11/15 02:57:34;;;;;;;51.92;26.13;;;7.50;99.90;;;;;;5053955;28;20056;-68
2021/11/15 02:59:59;;;;;;;53.97;27.02;;;7.50;99.90;;;;;;5054189;28;20108;-68
2021/11/15 03:02:25;;;;;;;53.38;25.15;;;7.60;99.90;;;;;;5052632;28;20379;-68
2021/11/15 03:04:51;;;;;;;57.00;27.50;;;7.50;99.90;;;;;;5052308;28;20386;-68
2021/11/15 03:07:17;;;;;;;51.70;25.50;;;7.50;99.90;;;;;;5052300;28;20021;-68
2021/11/15 03:09:43;;;;;;;52.90;25.33;;;7.60;99.90;;;;;;5054047;28;20028;-68
2021/11/15 03:12:09;;;;;;;52.10;26.20;;;7.50;99.90;;;;;;5053082;28;20502;-68
2021/11/15 03:14:35;;;;;;;46.35;23.95;;;7.50;99.90;;;;;;5053983;28;20463;-68
2021/11/15 03:17:01;;;;;;;52.05;26.52;;;7.50;99.90;;;;;;5035979;28;20040;-68
2021/11/15 03:19:26;;;;;;;53.95;26.02;;;7.50;99.90;;;;;;5052135;28;20040;-68
2021/11/15 03:21:52;;;;;;;51.88;26.35;;;7.50;99.90;;;;;;5053315;28;20120;-68
2021/11/15 03:24:17;;;;;;;49.85;25.00;;;7.50;99.90;;;;;;5052122;28;20467;-68
2021/11/15 03:26:43;;;;;;;50.70;25.88;;;7.60;99.90;;;;;;5052452;28;20462;-68
2021/11/15 03:29:09;;;;;;;50.13;25.45;;;7.50;99.90;;;;;;5035534;28;20017;-68
2021/11/15 03:31:35;;;;;;;51.00;25.90;;;7.50;99.90;;;;;;5053579;28;20376;-68
2021/11/15 03:34:06;;;;;;;53.90;27.25;;;7.50;99.90;;;;;;5052360;28;20029;-68
2021/11/15 03:36:32;;;;;;;53.92;27.30;;;7.50;99.90;;;;;;5052672;28;20029;-69
2021/11/15 03:38:59;;;;;;;49.92;25.02;;;7.50;99.90;;;;;;5053500;28;20017;-68
2021/11/15 03:41:26;;;;;;;54.17;26.83;;;7.50;99.90;;;;;;5053391;28;20059;-69
2021/11/15 03:43:52;;;;;;;56.92;28.10;;;7.50;99.90;;;;;;5052233;28;20079;-69
2021/11/15 03:46:18;;;;;;;51.90;26.00;;;7.50;99.90;;;;;;5051912;28;20021;-69
2021/11/15 03:48:44;;;;;;;54.33;26.27;;;7.50;99.90;;;;;;5052898;28;20033;-68
2021/11/15 03:51:10;;;;;;;48.13;25.20;;;7.50;99.90;;;;;;5052176;28;20025;-68
2021/11/15 03:53:38;;;;;;;51.35;26.63;;;7.60;99.90;;;;;;5052445;28;20512;-68
2021/11/15 03:56:09;;;;;;;52.63;26.98;;;7.50;99.90;;;;;;5053033;28;20047;-68
2021/11/15 03:58:35;;;;;;;52.92;26.38;;;7.50;99.90;;;;;;5053572;28;20135;-68
2021/11/15 04:01:02;;;;;;;52.33;26.80;;;7.50;99.90;;;;;;5053501;28;20370;-68
2021/11/15 04:03:32;;;;;;;50.47;26.65;;;7.50;99.90;;;;;;5053543;28;20108;-68
2021/11/15 04:06:04;;;;;;;53.20;26.60;;;7.50;99.90;;;;;;5053212;28;20484;-68
2021/11/15 04:08:31;;;;;;;48.63;25.42;;;7.50;99.90;;;;;;5053497;28;20104;-68
2021/11/15 04:10:58;;;;;;;49.53;25.75;;;7.60;99.90;;;;;;5053485;28;20147;-68
2021/11/15 04:13:29;;;;;;;51.67;27.08;;;7.50;99.90;;;;;;5052925;28;20017;-68
2021/11/15 04:15:57;;;;;;;56.25;28.27;;;7.50;99.90;;;;;;5053434;28;20021;-68
2021/11/15 04:18:24;;;;;;;56.53;28.33;;;7.50;99.90;;;;;;5051988;28;20100;-68
2021/11/15 04:20:52;;;;;;;54.47;28.08;;;7.50;99.90;;;;;;5052542;28;20037;-68
2021/11/15 04:23:18;;;;;;;55.58;27.10;;;7.50;99.90;;;;;;5052827;28;20029;-68
2021/11/15 04:25:44;;;;;;;52.40;26.83;;;7.50;99.90;;;;;;5053336;28;20036;-68
2021/11/15 04:28:10;;;;;;;53.42;26.42;;;7.50;99.90;;;;;;5052428;28;20340;-68
2021/11/15 04:30:35;;;;;;;50.78;26.65;;;7.50;99.90;;;;;;5055592;28;20470;-68
2021/11/15 04:33:03;;;;;;;56.90;28.00;;;7.50;99.90;;;;;;5056932;28;20033;-68
2021/11/15 04:35:30;;;;;;;52.85;26.98;;;7.50;99.90;;;;;;5056876;28;20029;-68
2021/11/15 04:37:56;;;;;;;53.30;26.83;;;7.50;99.90;;;;;;5056818;28;20027;-68
2021/11/15 04:40:21;;;;;;;57.25;27.90;;;7.50;99.90;;;;;;5056808;28;20049;-68
2021/11/15 04:42:47;;;;;;;54.65;28.02;;;7.40;99.90;;;;;;5055704;28;20067;-68
2021/11/15 04:45:13;;;;;;;55.20;28.48;;;7.50;99.90;;;;;;5054971;28;20064;-68
2021/11/15 04:47:39;;;;;;;57.38;27.75;;;7.40;99.90;;;;;;5056660;28;20025;-68
2021/11/15 04:50:05;;;;;;;52.85;25.63;;;7.40;99.90;;;;;;5055097;28;20036;-68
2021/11/15 04:52:31;;;;;;;57.10;26.98;;;7.40;99.90;;;;;;5056535;28;20104;-68
2021/11/15 04:54:57;;;;;;;54.42;26.77;;;7.40;99.90;;;;;;5056489;28;20415;-68
2021/11/15 04:57:23;;;;;;;59.30;27.38;;;7.40;99.90;;;;;;5056440;28;20088;-69
2021/11/15 04:59:50;;;;;;;55.00;27.13;;;7.40;99.90;;;;;;5056439;28;20025;-68
2021/11/15 05:02:15;;;;;;;54.13;26.20;;;7.40;99.90;;;;;;5055126;28;20025;-68
2021/11/15 05:04:41;;;;;;;57.65;27.08;;;7.40;99.90;;;;;;5056063;28;20031;-68
2021/11/15 05:07:07;;;;;;;54.65;25.02;;;7.50;99.90;;;;;;5055316;28;20463;-68
2021/11/15 05:09:34;;;;;;;54.90;24.60;;;7.40;99.90;;;;;;5054775;28;20114;-68
2021/11/15 05:12:00;;;;;;;53.00;25.88;;;7.40;99.90;;;;;;5055648;28;20029;-68
2021/11/15 05:14:26;;;;;;;54.75;26.45;;;7.40;99.90;;;;;;5054334;28;20028;-67
2021/11/15 05:16:52;;;;;;;56.75;26.88;;;7.40;99.90;;;;;;5056071;28;20105;-66
2021/11/15 05:19:18;;;;;;;56.25;25.90;;;7.30;99.90;;;;;;5054612;28;20049;-66
2021/11/15 05:21:43;;;;;;;57.00;26.63;;;7.40;99.90;;;;;;5055464;28;20477;-67
2021/11/15 05:24:09;;;;;;;53.97;24.80;;;7.30;99.90;;;;;;5055939;28;20483;-68
2021/11/15 05:26:34;;;;;;;53.33;25.42;;;7.30;99.90;;;;;;5055905;28;20390;-68
2021/11/15 05:29:00;;;;;;;60.08;26.10;;;6.70;99.90;;;;;;5054073;28;20356;-68
2021/11/15 05:31:27;;;;;;;53.80;24.15;;;7.30;99.90;;;;;;5054351;28;20025;-68
2021/11/15 05:33:52;;;;;;;58.08;25.77;;;7.30;99.90;;;;;;5054615;28;20025;-69
2021/11/15 05:36:18;;;;;;;55.30;24.38;;;7.20;99.90;;;;;;5054272;28;20021;-69
2021/11/15 05:38:43;;;;;;;51.58;23.45;;;7.30;99.90;;;;;;5053882;28;20029;-69
2021/11/15 05:41:09;;;;;;;54.50;25.10;;;7.30;99.90;;;;;;5054985;28;20051;-68
2021/11/15 05:43:34;;;;;;;53.90;24.25;;;7.20;99.90;;;;;;5053785;28;20120;-68
2021/11/15 05:46:00;;;;;;;58.28;24.05;;;7.20;99.90;;;;;;5055246;28;20021;-68
2021/11/15 05:48:25;;;;;;;55.35;23.33;;;7.20;99.90;;;;;;5053727;28;20032;-68
2021/11/15 05:50:51;;;;;;;54.20;23.73;;;7.10;99.90;;;;;;5055151;28;20021;-68
2021/11/15 05:53:17;;;;;;;49.17;22.83;;;7.20;99.90;;;;;;5055104;28;20021;-68
2021/11/15 05:55:43;;;;;;;55.53;25.55;;;7.10;99.90;;;;;;5055338;28;20056;-69
2021/11/15 05:58:09;;;;;;;51.22;23.00;;;7.20;99.90;;;;;;5055273;28;20017;-69
2021/11/15 06:00:38;;;;;;;49.78;21.98;;;7.00;99.90;;;;;;5053818;28;20466;-68
2021/11/15 06:03:04;;;;;;;46.22;20.63;;;7.10;99.90;;;;;;5054085;28;20036;-69
2021/11/15 06:05:30;;;;;;;51.20;22.88;;;7.00;99.90;;;;;;5055183;28;20366;-68
2021/11/15 06:07:56;;;;;;;49.08;22.60;;;6.90;99.90;;;;;;5055123;28;20025;-68
2021/11/15 06:10:22;;;;;;;46.25;21.48;;;6.90;99.90;;;;;;5055081;28;20123;-68
2021/11/15 06:12:49;;;;;;;43.88;20.33;;;6.90;99.90;;;;;;5055022;28;20021;-68
2021/11/15 06:15:16;;;;;;;41.22;19.00;;;;;;;;;;5053828;28;20021;-68
2021/11/15 06:17:42;;;;;;;43.78;19.83;;;6.80;99.90;;;;;;5054951;28;20029;-68
2021/11/15 06:20:12;;;;;;;39.22;18.77;;;6.80;99.90;;;;;;5053754;28;20029;-68
2021/11/15 06:22:37;;;;;;;46.95;19.48;;;6.70;99.90;;;;;;5054123;28;20049;-68
2021/11/15 06:25:05;;;;;;;44.08;19.50;;;6.70;99.90;;;;;;5054501;28;20466;-68
2021/11/15 06:27:31;;;;;;;40.67;17.38;;;6.70;99.90;;;;;;5053334;28;20017;-68
2021/11/15 06:29:56;;;;;;;36.92;17.63;;;6.70;99.90;;;;;;5053533;28;20087;-68
2021/11/15 06:32:22;;;;;;;37.38;17.35;;;6.70;99.90;;;;;;5036248;28;20120;-69
2021/11/15 06:34:47;;;;;;;39.20;17.92;;;6.70;99.90;;;;;;5054072;28;20029;-68
2021/11/15 06:37:14;;;;;;;38.55;16.73;;;6.60;99.90;;;;;;5054539;28;20032;-69
2021/11/15 06:39:39;;;;;;;33.78;16.17;;;6.60;99.90;;;;;;5054257;28;20021;-68
2021/11/15 06:42:05;;;;;;;33.42;16.70;;;6.70;99.90;;;;;;5054064;28;20079;-68
2021/11/15 06:44:31;;;;;;;32.42;17.17;;;6.60;99.90;;;;;;5054406;28;20455;-69
2021/11/15 06:46:58;;;;;;;30.30;15.30;;;6.70;99.90;;;;;;5054100;28;20025;-68
2021/11/15 06:49:25;;;;;;;30.13;16.05;;;6.70;99.90;;;;;;5054318;28;20028;-68
2021/11/15 06:51:50;;;;;;;30.67;15.90;;;6.70;99.90;;;;;;5053904;28;20017;-67
2021/11/15 06:54:16;;;;;;;31.27;15.52;;;6.60;99.90;;;;;;5052445;28;20083;-68
2021/11/15 06:56:42;;;;;;;34.30;16.98;;;6.60;99.90;;;;;;5054214;28;20029;-68
2021/11/15 06:59:08;;;;;;;30.77;16.60;;;6.70;99.90;;;;;;5054191;28;20044;-68
2021/11/15 07:01:36;;;;;;;30.42;16.73;;;6.70;99.90;;;;;;5052635;28;20029;-68
2021/11/15 07:04:04;;;;;;;31.50;15.20;;;6.70;99.90;;;;;;5053807;28;20104;-68
2021/11/15 07:06:30;;;;;;;29.30;14.88;;;6.70;99.90;;;;;;5053404;28;20108;-68
2021/11/15 07:08:56;;;;;;;29.98;15.52;;;6.70;99.90;;;;;;5052096;28;20052;-68
2021/11/15 07:11:22;;;;;;;32.25;16.42;;;6.70;99.90;;;;;;5054003;28;20059;-68
2021/11/15 07:13:47;;;;;;;30.65;15.55;;;6.60;99.90;;;;;;5053662;28;20451;-68
2021/11/15 07:16:13;;;;;;;31.50;16.08;;;6.70;99.90;;;;;;5053293;28;20033;-68
2021/11/15 07:18:39;;;;;;;35.22;16.50;;;6.60;99.90;;;;;;5053714;28;20067;-68
2021/11/15 07:21:05;;;;;;;35.22;16.27;;;6.60;99.90;;;;;;5053268;28;20597;-68
2021/11/15 07:23:31;;;;;;;33.10;16.25;;;6.60;99.90;;;;;;5053425;28;20033;-69
2021/11/15 07:25:56;;;;;;;32.08;16.77;;;6.70;99.90;;;;;;5052425;28;20021;-68
2021/11/15 07:28:23;;;;;;;33.95;17.30;;;6.70;99.90;;;;;;5051876;28;20360;-68
2021/11/15 07:30:54;;;;;;;34.67;16.75;;;6.70;99.90;;;;;;5053176;28;20480;-68
2021/11/15 07:33:20;;;;;;;34.60;15.85;;;6.60;99.90;;;;;;5051829;28;20032;-68
2021/11/15 07:35:48;;;;;;;37.10;17.48;;;6.60;99.90;;;;;;5053503;28;20076;-68
2021/11/15 07:38:15;;;;;;;34.90;16.75;;;6.60;99.90;;;;;;5052341;28;20047;-68
2021/11/15 07:40:40;;;;;;;36.95;16.33;;;6.70;99.90;;;;;;5053154;28;20021;-68
2021/11/15 07:43:06;;;;;;;38.00;16.85;;;6.60;99.90;;;;;;5052377;28;20032;-68
2021/11/15 07:45:31;;;;;;;37.83;17.83;;;6.70;99.90;;;;;;5042806;28;20368;-69
2021/11/15 07:47:57;;;;;;;36.00;17.88;;;6.60;99.90;;;;;;5061387;28;20386;-68
2021/11/15 07:50:23;;;;;;;37.20;17.33;;;6.60;99.90;;;;;;5053599;28;20670;-68
2021/11/15 07:52:48;;;;;;;38.55;18.10;;;6.70;99.90;;;;;;5064614;28;20033;-68
2021/11/15 07:55:14;;;;;;;38.90;16.38;;;6.60;99.90;;;;;;5052287;28;20432;-68
2021/11/15 07:57:41;;;;;;;34.63;17.15;;;6.60;99.90;;;;;;5053101;28;20429;-68
2021/11/15 08:00:10;;;;;;;40.60;17.92;;;6.60;99.90;;;;;;5058845;28;20394;-68
2021/11/15 08:02:36;;;;;;;36.65;16.80;;;6.60;99.90;;;;;;5057541;28;20064;-68
2021/11/15 08:05:02;;;;;;;43.22;19.33;;;6.60;99.90;;;;;;5059468;28;20032;-68
2021/11/15 08:07:28;;;;;;;46.13;19.55;;;6.50;99.90;;;;;;5073816;28;20418;-68
2021/11/15 08:09:54;;;;;;;38.22;17.33;;;6.60;99.90;;;;;;5077084;28;20028;-68
2021/11/15 08:12:20;;;;;;;37.58;17.83;;;6.50;99.90;;;;;;5059450;28;20359;-68
2021/11/15 08:14:46;;;;;;;40.08;18.55;;;6.60;99.90;;;;;;5055319;28;20481;-68
2021/11/15 08:17:13;;;;;;;38.65;17.05;;;6.60;99.90;;;;;;5057580;28;20036;-66
2021/11/15 08:19:40;;;;;;;42.10;17.50;;;6.60;99.90;;;;;;5055935;28;20021;-69
2021/11/15 08:22:06;;;;;;;42.50;18.67;;;6.50;99.90;;;;;;5057357;28;20098;-68
2021/11/15 08:27:25;;;;;;;46.13;18.70;;;6.60;99.90;;;;;;5120798;27;20395;-68
2021/11/15 08:29:50;;;;;;;41.20;18.42;;;6.50;99.90;;;;;;5128973;28;20438;-68
2021/11/15 08:32:16;;;;;;;42.08;19.10;;;6.60;99.90;;;;;;5127324;27;20051;-68
2021/11/15 08:34:43;;;;;;;48.08;20.65;;;6.50;99.90;;;;;;5112572;28;20019;-67
2021/11/15 08:37:09;;;;;;;44.70;19.52;;;6.60;99.90;;;;;;5120126;27;20073;-67
2021/11/15 08:39:35;;;;;;;45.17;19.25;;;6.50;99.90;;;;;;5113674;27;20405;-70
2021/11/15 08:42:04;;;;;;;40.70;18.25;;;6.50;99.90;;;;;;5125264;28;20040;-67
2021/11/15 08:44:32;;;;;;;37.13;18.17;;;6.60;99.90;;;;;;5118628;27;20419;-67
2021/11/15 08:46:59;;;;;;;41.22;17.42;;;6.60;99.90;;;;;;5119383;28;20032;-67
2021/11/15 08:49:29;;;;;;;41.58;19.40;;;6.60;99.90;;;;;;5120793;28;20023;-68
2021/11/15 08:51:56;;;;;;;37.67;18.08;;;6.60;99.90;;;;;;5124863;28;20041;-68
2021/11/15 08:54:23;;;;;;;40.17;18.15;;;6.70;99.90;;;;;;5118192;27;20032;-68
2021/11/15 08:56:53;;;;;;;39.92;18.17;;;6.70;99.90;;;;;;5097227;28;20023;-69
2021/11/15 08:59:19;;;;;;;40.63;17.58;;;6.70;99.90;;;;;;5113818;28;20080;-69
2021/11/15 09:01:45;;;;;;;32.85;16.80;;;6.70;99.90;;;;;;5121013;28;20503;-68
2021/11/15 09:04:11;;;;;;;41.22;19.30;;;6.70;99.90;;;;;;5118329;28;20076;-68
2021/11/15 09:06:38;;;;;;;37.00;17.58;;;6.70;99.90;;;;;;5117825;27;20032;-67
2021/11/15 09:09:09;;;;;;;38.35;17.73;;;6.70;99.90;;;;;;5110468;28;20016;-68
2021/11/15 09:11:35;;;;;;;34.83;17.55;;;6.80;99.90;;;;;;5116211;28;20491;-68
2021/11/15 09:14:02;;;;;;;34.25;17.17;;;6.80;99.90;;;;;;5119733;28;20020;-68
2021/11/15 09:16:27;;;;;;;31.23;15.88;;;6.80;99.90;;;;;;5122664;27;20050;-69
2021/11/15 09:18:53;;;;;;;34.28;17.40;;;6.80;99.90;;;;;;5107694;28;20469;-69
2021/11/15 09:21:18;;;;;;;34.30;16.83;;;6.80;99.90;;;;;;5108310;28;20497;-68
2021/11/15 09:23:46;;;;;;;29.40;15.70;;;6.80;99.90;;;;;;5112952;28;20027;-68
2021/11/15 09:26:14;;;;;;;29.88;16.40;;;6.80;99.90;;;;;;5124232;28;20047;-68
2021/11/15 09:28:41;;;;;;;30.80;15.30;;;6.80;99.90;;;;;;5127625;27;20050;-68
2021/11/15 09:31:07;;;;;;;32.63;17.52;;;6.80;99.90;;;;;;5119892;27;20020;-67
2021/11/15 09:33:33;;;;;;;30.15;16.38;;;6.90;99.90;;;;;;5124798;28;20027;-69
2021/11/15 09:35:59;;;;;;;30.83;16.15;;;6.90;99.90;;;;;;5110816;28;20019;-68
2021/11/15 09:38:42;;;;;;;34.00;16.48;;;6.90;99.90;;;;;;5104090;28;20027;-68
2021/11/15 09:41:07;;;;;;;32.33;16.05;;;7.00;99.90;;;;;;5110914;28;20044;-68
2021/11/15 09:43:36;;;;;;;29.58;15.77;;;7.00;99.90;;;;;;5096170;28;20110;-68
2021/11/15 09:46:04;;;;;;;30.77;15.90;;;7.10;99.90;;;;;;5100455;28;20061;-68
2021/11/15 09:48:35;;;;;;;31.20;16.58;;;7.10;99.90;;;;;;5104070;28;20027;-68
2021/11/15 09:51:02;;;;;;;28.98;15.70;;;7.10;99.90;;;;;;5096139;28;20431;-68
2021/11/15 09:53:29;;;;;;;29.33;16.85;;;7.10;99.90;;;;;;5096432;28;20034;-68
2021/11/15 09:55:56;;;;;;;30.20;15.98;;;7.10;99.90;;;;;;5096673;28;20111;-68
2021/11/15 09:58:23;;;;;;;32.85;16.40;;;7.10;99.90;;;;;;5094866;28;20026;-69
2021/11/15 10:00:48;;;;;;;31.92;17.23;;;7.20;99.90;;;;;;5106579;28;20031;-68
2021/11/15 10:03:15;;;;;;;34.78;16.23;;;7.10;99.90;;;;;;5116262;28;20027;-68
2021/11/15 10:05:42;;;;;;;33.35;17.38;;;7.10;99.90;;;;;;5095827;28;20381;-68
2021/11/15 10:08:09;;;;;;;32.85;18.20;;;7.10;99.90;;;;;;5093996;28;20020;-69
2021/11/15 10:10:41;;;;;;;34.78;17.92;;;7.10;99.90;;;;;;5110038;28;20027;-68
2021/11/15 10:13:25;;;;;;;30.73;16.75;;;7.10;99.90;;;;;;5099487;28;20024;-68
2021/11/15 10:15:57;;;;;;;32.85;17.45;;;7.10;99.90;;;;;;5098105;28;20020;-68
2021/11/15 10:18:34;;;;;;;36.33;17.08;;;7.20;99.90;;;;;;5096106;28;20070;-69
2021/11/15 10:21:04;;;;;;;31.10;16.67;;;7.20;99.90;;;;;;5107925;28;20047;-68
2021/11/15 10:23:38;;;;;;;31.45;17.02;;;7.20;99.90;;;;;;5095448;28;20084;-68
2021/11/15 10:26:12;;;;;;;30.08;16.88;;;7.30;99.90;;;;;;5095384;28;20048;-68
2021/11/15 10:28:38;;;;;;;31.25;16.63;;;7.30;99.90;;;;;;5113571;28;20020;-68
2021/11/15 10:31:04;;;;;;;28.30;16.35;;;7.30;99.90;;;;;;5113969;28;20019;-68
2021/11/15 10:33:38;;;;;;;32.72;17.10;;;7.20;99.90;;;;;;5111505;28;20028;-69
2021/11/15 10:36:04;;;;;;;36.20;19.15;;;7.20;99.90;;;;;;5114643;28;20028;-69
2021/11/15 10:38:50;;;;;;;29.27;16.30;;;7.10;99.90;;;;;;5101874;28;20035;-68
2021/11/15 10:41:20;;;;;;;30.73;17.55;;;7.10;99.90;;;;;;5095171;28;20036;-68
2021/11/15 10:43:55;;;;;;;34.63;17.60;;;7.10;99.90;;;;;;5095361;28;20031;-69
2021/11/15 10:46:29;;;;;;;31.95;17.05;;;7.10;99.90;;;;;;5095975;28;20081;-68
2021/11/15 10:48:57;;;;;;;35.63;18.40;;;7.20;99.90;;;;;;5093907;28;20044;-68
2021/11/15 10:51:48;;;;;;;29.45;16.33;;;7.20;99.90;;;;;;5109475;28;20024;-68
2021/11/15 10:54:55;;;;;;;31.27;16.88;;;7.10;99.90;;;;;;5114138;28;20035;-69
2021/11/15 11:02:46;;;;;;;32.05;16.73;;;7.10;99.90;;;;;;5092509;28;20368;-68
2021/11/15 11:05:17;;;;;;;31.77;16.45;;;7.20;99.90;;;;;;5090369;28;20062;-69
2021/11/15 11:07:46;;;;;;;31.30;16.33;;;7.20;99.90;;;;;;5091065;28;20078;-68
2021/11/15 11:10:16;;;;;;;32.72;16.73;;;7.10;99.90;;;;;;5091252;28;20021;-68
2021/11/15 11:12:55;;;;;;;33.88;17.77;;;7.00;99.90;;;;;;5090364;28;20032;-68
2021/11/15 11:15:42;;;;;;;30.35;16.30;;;7.00;99.90;;;;;;5078994;28;20028;-68
2021/11/15 11:18:13;;;;;;;36.42;16.88;;;7.00;99.90;;;;;;5081607;28;20051;-68
2021/11/15 11:26:27;;;;;;;31.40;16.20;;;7.00;99.90;;;;;;5123566;28;20066;-68
2021/11/15 11:28:58;;;;;;;35.90;16.67;;;7.00;99.90;;;;;;5110156;28;20107;-69
2021/11/15 11:31:28;;;;;;;34.05;17.88;;;7.00;99.90;;;;;;5128527;28;20473;-68
2021/11/15 11:33:55;;;;;;;32.95;17.25;;;7.10;99.90;;;;;;5131672;27;20012;-70
2021/11/15 11:36:20;;;;;;;37.10;17.85;;;7.00;99.90;;;;;;5127379;27;20028;-69
2021/11/15 11:38:47;;;;;;;32.60;16.88;;;7.00;99.90;;;;;;5110685;27;20031;-70
2021/11/15 11:41:15;;;;;;;33.17;16.13;;;7.00;99.90;;;;;;5122342;28;20020;-69
2021/11/15 11:43:42;;;;;;;36.20;17.73;;;6.90;99.90;;;;;;5116112;27;20116;-69
2021/11/15 11:46:12;;;;;;;38.85;18.30;;;7.00;99.90;;;;;;5116958;28;20380;-69
2021/11/15 11:48:38;;;;;;;33.15;16.65;;;7.00;99.90;;;;;;5118715;27;20069;-69
2021/11/15 11:51:04;;;;;;;39.53;18.40;;;6.90;99.90;;;;;;5111251;28;20020;-69
2021/11/15 11:53:45;;;;;;;41.17;19.40;;;6.90;99.90;;;;;;5111953;28;20028;-69
2021/11/15 11:56:21;;;;;;;34.03;17.27;;;6.90;99.90;;;;;;5115198;28;20031;-69
2021/11/15 11:58:50;;;;;;;36.88;19.02;;;6.90;99.90;;;;;;5116338;28;20055;-69
2021/11/15 12:01:23;;;;;;;40.22;19.08;;;6.90;99.90;;;;;;5113896;27;20028;-69
2021/11/15 12:04:09;;;;;;;;;;;6.90;99.90;;;;;;5113948;28;20099;-68
2021/11/15 12:06:34;;;;;;;38.00;18.05;;;6.90;99.90;;;;;;5117896;28;19908;-69
2021/11/15 12:09:01;;;;;;;41.80;19.77;;;6.90;99.90;;;;;;5124260;28;20031;-68
2021/11/15 12:11:32;;;;;;;37.30;19.05;;;6.90;99.90;;;;;;5109898;28;20028;-68
2021/11/15 12:14:00;;;;;;;44.28;21.08;;;6.90;99.90;;;;;;5117415;28;20038;-69
2021/11/15 12:17:03;;;;;;;41.67;20.55;;;6.90;99.90;;;;;;5131094;27;20028;-69
2021/11/15 12:22:38;;;;;;;46.50;21.02;;;6.80;99.90;;;;;;5112012;27;20133;-68
2021/11/15 12:33:17;;;;;;;42.80;20.33;;;6.80;99.90;;;;;;5093854;27;20768;-68
2021/11/15 12:35:53;;;;;;;43.53;21.40;;;6.90;99.90;;;;;;5080507;28;20023;-68
2021/11/15 12:38:41;;;;;;;45.97;21.42;;;6.90;99.90;;;;;;5076623;28;20025;-68
2021/11/15 12:49:37;;;;;;;41.25;21.40;;;6.90;99.90;;;;;;5071464;28;20044;-68
2021/11/15 12:54:50;;;;;;;37.08;20.48;;;6.90;99.90;;;;;;5091178;27;20101;-68
2021/11/15 12:57:22;;;;;;;40.75;21.00;;;6.90;99.90;;;;;;5072309;28;20466;-68
2021/11/15 12:59:53;;;;;;;40.13;21.60;;;6.90;99.90;;;;;;5070658;28;20021;-70
2021/11/15 13:02:19;;;;;;;42.08;22.30;;;6.90;99.90;;;;;;5089720;28;20033;-68
2021/11/15 13:04:45;;;;;;;40.58;22.88;;;6.90;99.90;;;;;;5091192;28;20027;-69
2021/11/15 13:07:13;;;;;;;36.53;21.92;;;7.00;99.90;;;;;;5088497;28;20024;-68
2021/11/15 13:09:42;;;;;;;38.60;21.20;;;7.00;99.90;;;;;;5076041;28;20033;-69
2021/11/15 13:12:08;;;;;;;41.20;22.42;;;7.10;99.90;;;;;;5070556;28;20052;-68
2021/11/15 13:14:34;;;;;;;38.55;21.67;;;7.00;99.90;;;;;;5071361;28;20076;-68
2021/11/15 13:16:59;;;;;;;39.47;21.75;;;7.00;99.90;;;;;;5071471;28;20048;-68